createdAt,value
2023-02-26T00:02:52.786Z,-1.76
2023-02-26T00:07:54.513Z,-1.86
2023-02-26T00:12:56.279Z,-1.90
2023-02-26T00:18:09.604Z,-1.95
2023-02-26T00:23:14.584Z,-1.97
2023-02-26T00:28:16.427Z,-1.98
2023-02-26T00:33:18.311Z,-2.07
2023-02-26T00:38:20.068Z,-2.21
2023-02-26T00:43:25.033Z,-2.30
2023-02-26T00:48:46.931Z,-2.35
2023-02-26T00:54:00.693Z,-2.29
2023-02-26T00:59:02.294Z,-2.31
2023-02-26T01:04:04.368Z,-2.36
2023-02-26T01:09:17.960Z,-2.38
2023-02-26T01:14:20.089Z,-2.42
2023-02-26T01:19:38.873Z,-2.47
2023-02-26T01:24:41.208Z,-2.61
2023-02-26T01:29:48.199Z,-2.63
2023-02-26T01:35:23.287Z,-2.64
2023-02-26T01:40:52.980Z,-2.65
2023-02-26T01:46:06.238Z,-2.62
2023-02-26T01:51:09.279Z,-2.56
2023-02-26T01:56:19.696Z,-2.45
2023-02-26T02:01:21.489Z,-2.42
2023-02-26T02:06:26.624Z,-2.45
2023-02-26T02:11:28.482Z,-2.46
2023-02-26T02:17:03.639Z,-2.57
2023-02-26T02:22:17.246Z,-2.66
2023-02-26T02:27:26.616Z,-2.69
2023-02-26T02:32:39.694Z,-2.69
2023-02-26T02:37:58.660Z,-2.73
2023-02-26T02:43:06.424Z,-2.86
2023-02-26T02:48:25.418Z,-2.95
2023-02-26T02:53:33.462Z,-2.96
2023-02-26T02:58:42.504Z,-3.02
2023-02-26T03:04:00.008Z,-3.09
2023-02-26T03:09:04.229Z,-3.19
2023-02-26T03:14:06.473Z,-3.21
2023-02-26T03:19:31.031Z,-3.24
2023-02-26T03:24:51.278Z,-3.26
2023-02-26T03:30:02.340Z,-3.43
2023-02-26T03:35:13.693Z,-3.56
2023-02-26T03:40:22.053Z,-3.65
2023-02-26T03:45:29.071Z,-3.83
2023-02-26T03:50:40.116Z,-3.93
2023-02-26T03:56:29.679Z,-3.95
2023-02-26T04:02:16.175Z,-3.94
2023-02-26T04:07:20.201Z,-3.98
2023-02-26T04:12:23.520Z,-3.96
2023-02-26T04:17:28.607Z,-3.96
2023-02-26T04:22:31.297Z,-3.96
2023-02-26T04:27:33.026Z,-4.10
2023-02-26T04:32:35.368Z,-4.17
2023-02-26T04:37:37.046Z,-4.12
2023-02-26T04:42:38.806Z,-4.08
2023-02-26T04:47:40.795Z,-3.95
2023-02-26T04:52:42.522Z,-4.03
2023-02-26T04:57:44.279Z,-3.96
2023-02-26T05:02:46.382Z,-3.97
2023-02-26T05:07:48.560Z,-4.01
2023-02-26T05:12:50.611Z,-3.98
2023-02-26T05:17:52.183Z,-3.92
2023-02-26T05:22:54.675Z,-3.94
2023-02-26T05:27:56.393Z,-3.97
2023-02-26T05:32:58.427Z,-3.91
2023-02-26T05:38:00.104Z,-3.80
2023-02-26T05:43:01.645Z,-3.65
2023-02-26T05:48:03.524Z,-3.50
2023-02-26T05:53:05.110Z,-3.50
2023-02-26T05:58:06.737Z,-3.56
2023-02-26T06:03:08.438Z,-3.67
2023-02-26T06:08:12.132Z,-3.70
2023-02-26T06:13:13.691Z,-3.69
2023-02-26T06:18:17.377Z,-3.76
2023-02-26T06:23:18.982Z,-3.79
2023-02-26T06:28:20.604Z,-3.79
2023-02-26T06:33:22.243Z,-3.70
2023-02-26T06:38:24.219Z,-3.64
2023-02-26T06:43:25.986Z,-3.61
2023-02-26T06:48:27.682Z,-3.62
2023-02-26T06:53:29.506Z,-3.51
2023-02-26T06:58:31.234Z,-3.49
2023-02-26T07:03:32.775Z,-3.40
2023-02-26T07:08:35.432Z,-3.23
2023-02-26T07:13:37.984Z,-3.04
2023-02-26T07:18:39.771Z,-2.95
2023-02-26T07:23:41.293Z,-2.85
2023-02-26T07:28:42.896Z,-2.70
2023-02-26T07:33:44.523Z,-2.56
2023-02-26T07:38:46.128Z,-2.50
2023-02-26T07:43:47.653Z,-2.39
2023-02-26T07:48:49.218Z,-2.27
2023-02-26T07:53:50.830Z,-2.22
2023-02-26T07:58:52.379Z,-2.20
2023-02-26T08:03:53.949Z,-2.14
2023-02-26T08:08:55.612Z,-2.06
2023-02-26T08:13:57.354Z,-1.93
2023-02-26T08:18:58.874Z,-1.88
2023-02-26T08:24:00.427Z,-1.91
2023-02-26T08:29:02.190Z,-1.70
2023-02-26T08:34:04.147Z,-1.50
2023-02-26T08:39:07.539Z,-1.40
2023-02-26T08:44:09.139Z,-1.29
2023-02-26T08:49:10.772Z,-1.13
2023-02-26T08:54:12.845Z,-0.98
2023-02-26T08:59:15.165Z,-0.79
2023-02-26T09:04:17.032Z,-0.82
2023-02-26T09:09:19.420Z,-0.81
2023-02-26T09:14:21.119Z,-0.69
2023-02-26T09:19:22.927Z,-0.55
2023-02-26T09:24:24.636Z,-0.43
2023-02-26T09:29:26.364Z,-0.32
2023-02-26T09:34:27.863Z,-0.23
2023-02-26T09:39:29.394Z,-0.24
2023-02-26T09:44:34.058Z,-0.13
2023-02-26T09:49:49.486Z,0.04
2023-02-26T09:54:55.720Z,0.01
2023-02-26T09:59:58.150Z,-0.05
2023-02-26T10:05:13.483Z,0.10
2023-02-26T10:10:30.338Z,0.17
2023-02-26T10:15:42.044Z,0.04
2023-02-26T10:20:57.840Z,0.04
2023-02-26T10:26:17.822Z,0.16
2023-02-26T10:31:25.792Z,0.28
2023-02-26T10:36:40.609Z,0.27
2023-02-26T10:41:42.297Z,0.29
2023-02-26T10:46:47.247Z,0.25
2023-02-26T10:51:49.656Z,0.24
2023-02-26T10:56:51.196Z,0.20
2023-02-26T11:01:54.151Z,0.23
2023-02-26T11:06:57.508Z,0.24
2023-02-26T11:12:15.383Z,0.26
2023-02-26T11:17:18.996Z,0.33
2023-02-26T11:22:21.798Z,0.39
2023-02-26T11:27:31.834Z,0.58
2023-02-26T11:32:36.283Z,0.86
2023-02-26T11:37:48.119Z,0.74
2023-02-26T11:42:54.826Z,0.71
2023-02-26T11:48:02.377Z,0.43
2023-02-26T11:53:15.568Z,0.19
2023-02-26T11:58:22.157Z,0.12
2023-02-26T12:03:28.880Z,0.19
2023-02-26T12:08:40.907Z,0.33
2023-02-26T12:14:00.373Z,0.49
2023-02-26T12:19:11.258Z,0.70
2023-02-26T12:24:27.737Z,0.69
2023-02-26T12:29:38.268Z,0.86
2023-02-26T12:34:59.072Z,1.00
2023-02-26T12:40:44.413Z,1.19
2023-02-26T12:45:51.824Z,1.22
2023-02-26T12:50:59.302Z,1.29
2023-02-26T12:56:25.260Z,1.31
2023-02-26T13:02:10.483Z,1.33
2023-02-26T13:07:42.219Z,1.29
2023-02-26T13:12:53.765Z,1.34
2023-02-26T13:18:12.363Z,1.46
2023-02-26T13:23:22.517Z,1.51
2023-02-26T13:28:45.179Z,1.52
2023-02-26T13:33:49.170Z,1.79
2023-02-26T13:39:22.654Z,2.16
2023-02-26T13:44:30.257Z,2.08
2023-02-26T13:50:08.375Z,1.92
2023-02-26T13:55:46.464Z,1.59
2023-02-26T14:01:17.548Z,1.67
2023-02-26T14:06:23.282Z,1.76
2023-02-26T14:12:03.966Z,1.73
2023-02-26T14:17:08.532Z,1.66
2023-02-26T14:22:23.565Z,1.54
2023-02-26T14:27:28.213Z,1.55
2023-02-26T14:32:57.292Z,1.65
2023-02-26T14:38:03.230Z,1.75
2023-02-26T14:43:06.923Z,1.86
2023-02-26T14:48:14.955Z,1.85
2023-02-26T14:53:38.356Z,1.87
2023-02-26T14:58:57.474Z,1.78
2023-02-26T15:04:08.060Z,1.77
2023-02-26T15:09:38.294Z,1.75
2023-02-26T15:14:52.075Z,1.67
2023-02-26T15:20:10.380Z,1.70
2023-02-26T15:25:25.522Z,1.71
2023-02-26T15:30:29.424Z,1.74
2023-02-26T15:35:32.351Z,1.71
2023-02-26T15:40:37.368Z,1.70
2023-02-26T15:45:42.316Z,1.64
2023-02-26T15:50:50.221Z,1.61
2023-02-26T15:55:54.908Z,1.56
2023-02-26T16:01:01.069Z,1.55
2023-02-26T16:06:03.480Z,1.53
2023-02-26T16:11:06.211Z,1.46
2023-02-26T16:16:16.010Z,1.34
2023-02-26T16:21:32.408Z,1.19
2023-02-26T16:26:43.468Z,1.18
2023-02-26T16:31:52.501Z,1.23
2023-02-26T16:36:54.623Z,1.16
2023-02-26T16:42:20.136Z,1.11
2023-02-26T16:47:22.352Z,1.04
2023-02-26T16:52:26.696Z,0.97
2023-02-26T16:57:37.293Z,0.92
2023-02-26T17:02:41.183Z,0.89
2023-02-26T17:07:56.804Z,0.89
2023-02-26T17:13:06.304Z,0.87
2023-02-26T17:18:08.530Z,0.85
2023-02-26T17:23:15.318Z,0.83
2023-02-26T17:28:22.705Z,0.74
2023-02-26T17:33:27.095Z,0.65
2023-02-26T17:38:29.005Z,0.48
2023-02-26T17:43:30.884Z,0.49
2023-02-26T17:48:32.422Z,0.49
2023-02-26T17:53:40.839Z,0.47
2023-02-26T17:58:43.164Z,0.41
2023-02-26T18:03:45.078Z,0.51
2023-02-26T18:08:48.514Z,0.54
2023-02-26T18:13:50.035Z,0.41
2023-02-26T18:18:51.828Z,0.30
2023-02-26T18:23:57.408Z,0.33
2023-02-26T18:28:59.568Z,0.31
2023-02-26T18:34:01.449Z,0.33
2023-02-26T18:39:08.847Z,0.23
2023-02-26T18:44:11.166Z,0.18
2023-02-26T18:49:18.934Z,0.13
2023-02-26T18:54:20.485Z,0.06
2023-02-26T18:59:22.198Z,-0.01
2023-02-26T19:04:23.966Z,0.01
2023-02-26T19:09:26.984Z,-0.15
2023-02-26T19:14:28.768Z,-0.22
2023-02-26T19:19:30.291Z,-0.22
2023-02-26T19:24:32.194Z,-0.34
2023-02-26T19:29:34.374Z,-0.50
2023-02-26T19:34:36.323Z,-0.69
2023-02-26T19:39:38.346Z,-0.71
2023-02-26T19:44:40.048Z,-0.71
2023-02-26T19:49:41.610Z,-0.67
2023-02-26T19:54:43.172Z,-0.69
2023-02-26T19:59:44.774Z,-0.77
2023-02-26T20:04:46.316Z,-0.92
2023-02-26T20:09:49.671Z,-1.00
2023-02-26T20:14:51.396Z,-0.97
2023-02-26T20:19:52.912Z,-1.04
2023-02-26T20:24:54.507Z,-1.06
2023-02-26T20:29:56.180Z,-1.06
2023-02-26T20:34:57.837Z,-1.07
2023-02-26T20:40:01.535Z,-1.16
2023-02-26T20:45:04.241Z,-1.28
2023-02-26T20:50:06.452Z,-1.25
2023-02-26T20:55:08.490Z,-1.33
2023-02-26T21:00:11.411Z,-1.36
2023-02-26T21:05:14.438Z,-1.43
2023-02-26T21:10:17.651Z,-1.46
2023-02-26T21:15:19.571Z,-1.55
2023-02-26T21:20:22.253Z,-1.58
2023-02-26T21:25:23.831Z,-1.52
2023-02-26T21:30:25.394Z,-1.57
2023-02-26T21:35:26.950Z,-1.63
2023-02-26T21:40:28.765Z,-1.76
2023-02-26T21:45:31.116Z,-1.80
2023-02-26T21:50:33.094Z,-1.80
2023-02-26T21:55:34.658Z,-1.88
2023-02-26T22:00:36.189Z,-1.90
2023-02-26T22:05:37.831Z,-1.94
2023-02-26T22:10:39.377Z,-1.92
2023-02-26T22:15:42.005Z,-2.01
2023-02-26T22:20:43.528Z,-2.08
2023-02-26T22:25:46.055Z,-2.04
2023-02-26T22:30:47.676Z,-2.09
2023-02-26T22:35:50.146Z,-2.09
2023-02-26T22:40:52.593Z,-2.20
2023-02-26T22:45:54.192Z,-2.21
2023-02-26T22:50:55.777Z,-2.21
2023-02-26T22:55:58.328Z,-2.31
2023-02-26T23:01:01.952Z,-2.26
2023-02-26T23:06:03.861Z,-2.24
2023-02-26T23:11:08.255Z,-2.15
2023-02-26T23:16:11.398Z,-2.17
2023-02-26T23:21:13.049Z,-2.27
2023-02-26T23:26:14.833Z,-2.30
2023-02-26T23:31:16.437Z,-2.30
2023-02-26T23:36:18.030Z,-2.29
2023-02-26T23:41:19.975Z,-2.25
2023-02-26T23:46:21.574Z,-2.26
2023-02-26T23:51:23.583Z,-2.25
2023-02-26T23:56:25.200Z,-2.30
